createdAt,value
2019-04-28T00:01:01.037Z,2.40
2019-04-28T00:03:31.941Z,1.83
2019-04-28T00:06:01.566Z,2.03
2019-04-28T00:08:31.879Z,1.97
2019-04-28T00:11:01.925Z,1.70
2019-04-28T00:13:32.089Z,1.90
2019-04-28T00:16:01.835Z,2.30
2019-04-28T00:18:31.785Z,1.40
2019-04-28T00:21:11.031Z,1.87
2019-04-28T00:24:05.167Z,1.30
2019-04-28T00:26:42.131Z,1.30
2019-04-28T00:29:11.771Z,1.80
2019-04-28T00:31:41.560Z,1.60
2019-04-28T00:34:11.547Z,1.47
2019-04-28T00:36:43.064Z,1.50
2019-04-28T00:39:12.946Z,1.77
2019-04-28T00:41:42.541Z,1.93
2019-04-28T00:44:12.418Z,1.80
2019-04-28T00:46:43.126Z,1.30
2019-04-28T00:49:12.673Z,1.30
2019-04-28T00:51:42.216Z,1.70
2019-04-28T00:54:12.272Z,1.77
2019-04-28T00:56:42.113Z,1.57
2019-04-28T00:59:12.051Z,2.03
2019-04-28T01:01:53.529Z,1.30
2019-04-28T01:04:23.041Z,1.50
2019-04-28T01:09:31.708Z,1.20
2019-04-28T01:12:01.799Z,1.40
2019-04-28T01:14:31.529Z,1.47
2019-04-28T01:17:12.360Z,1.70
2019-04-28T01:19:44.000Z,1.47
2019-04-28T01:22:15.839Z,1.40
2019-04-28T01:24:45.408Z,1.50
2019-04-28T01:27:36.628Z,1.50
2019-04-28T01:30:11.364Z,1.67
2019-04-28T01:32:49.797Z,1.43
2019-04-28T01:35:20.990Z,1.47
2019-04-28T01:37:50.715Z,1.40
2019-04-28T01:40:20.623Z,1.20
2019-04-28T01:42:50.247Z,1.40
2019-04-28T01:45:20.585Z,1.10
2019-04-28T01:47:50.527Z,1.13
2019-04-28T01:50:20.594Z,1.07
2019-04-28T01:52:51.528Z,2.03
2019-04-28T01:55:21.292Z,0.90
2019-04-28T01:57:50.904Z,1.10
2019-04-28T02:00:25.292Z,1.20
2019-04-28T02:02:51.759Z,1.40
2019-04-28T02:05:21.324Z,1.17
2019-04-28T02:07:50.791Z,1.10
2019-04-28T02:10:21.873Z,1.27
2019-04-28T02:12:51.384Z,1.00
2019-04-28T02:15:20.978Z,0.83
2019-04-28T02:17:51.643Z,0.97
2019-04-28T02:20:22.464Z,1.10
2019-04-28T02:23:05.768Z,0.93
2019-04-28T02:25:35.343Z,0.80
2019-04-28T02:28:04.916Z,1.10
2019-04-28T02:30:46.705Z,0.80
2019-04-28T02:33:05.744Z,1.03
2019-04-28T02:35:35.282Z,1.03
2019-04-28T02:38:04.910Z,1.20
2019-04-28T02:40:34.384Z,1.53
2019-04-28T02:43:03.863Z,1.37
2019-04-28T02:45:33.538Z,1.50
2019-04-28T02:48:04.842Z,1.37
2019-04-28T02:50:53.154Z,1.33
2019-04-28T02:53:33.176Z,1.60
2019-04-28T02:56:00.894Z,0.97
2019-04-28T02:58:31.354Z,1.23
2019-04-28T03:01:12.565Z,1.20
2019-04-28T03:03:32.340Z,1.73
2019-04-28T03:06:01.921Z,1.27
2019-04-28T03:08:31.598Z,1.30
2019-04-28T03:11:01.292Z,1.70
2019-04-28T03:13:31.375Z,1.27
2019-04-28T03:16:01.849Z,1.30
2019-04-28T03:18:31.893Z,1.80
2019-04-28T03:21:04.509Z,1.40
2019-04-28T03:23:33.141Z,1.73
2019-04-28T03:26:31.088Z,1.90
2019-04-28T03:29:07.071Z,1.33
2019-04-28T03:32:15.595Z,1.50
2019-04-28T03:34:23.359Z,1.00
2019-04-28T03:36:53.016Z,1.40
2019-04-28T03:39:22.433Z,1.20
2019-04-28T03:41:52.001Z,1.47
2019-04-28T03:44:21.594Z,1.57
2019-04-28T03:46:53.784Z,1.50
2019-04-28T03:49:33.397Z,1.87
2019-04-28T03:52:03.690Z,1.73
2019-04-28T03:54:33.256Z,1.50
2019-04-28T03:57:02.930Z,1.10
2019-04-28T03:59:32.543Z,1.90
2019-04-28T04:02:03.429Z,1.83
2019-04-28T04:04:33.265Z,1.73
2019-04-28T04:07:02.799Z,2.10
2019-04-28T04:09:52.604Z,1.70
2019-04-28T04:12:30.905Z,1.87
2019-04-28T04:15:12.169Z,2.30
2019-04-28T04:18:01.389Z,2.40
2019-04-28T04:20:31.247Z,2.20
2019-04-28T04:23:01.609Z,1.73
2019-04-28T04:25:31.624Z,1.60
2019-04-28T04:28:03.867Z,1.80
2019-04-28T04:30:32.466Z,1.77
2019-04-28T04:33:01.986Z,1.80
2019-04-28T04:35:31.775Z,2.10
2019-04-28T04:38:01.405Z,1.23
2019-04-28T04:40:31.608Z,1.93
2019-04-28T04:43:01.958Z,1.93
2019-04-28T04:45:31.615Z,2.20
2019-04-28T04:48:01.153Z,2.40
2019-04-28T04:50:31.535Z,2.23
2019-04-28T04:53:02.614Z,1.33
2019-04-28T04:55:33.068Z,1.30
2019-04-28T04:58:02.632Z,1.40
2019-04-28T05:00:43.453Z,1.53
2019-04-28T05:03:21.022Z,0.90
2019-04-28T05:05:50.198Z,1.23
2019-04-28T05:08:20.362Z,1.63
2019-04-28T05:10:50.354Z,1.60
2019-04-28T05:13:20.231Z,1.97
2019-04-28T05:15:50.699Z,1.40
2019-04-28T05:18:21.035Z,1.20
2019-04-28T05:20:50.604Z,1.27
2019-04-28T05:23:31.231Z,1.20
2019-04-28T05:26:07.664Z,1.27
2019-04-28T05:28:36.515Z,0.70
2019-04-28T05:31:03.328Z,1.27
2019-04-28T05:33:34.049Z,1.40
2019-04-28T05:36:03.736Z,1.40
2019-04-28T05:38:33.303Z,1.47
2019-04-28T05:41:02.976Z,0.90
2019-04-28T05:43:32.539Z,0.90
2019-04-28T05:46:02.070Z,1.30
2019-04-28T05:48:56.331Z,1.33
2019-04-28T05:51:29.861Z,0.97
2019-04-28T05:54:20.749Z,1.20
2019-04-28T05:57:10.361Z,0.90
2019-04-28T05:59:55.348Z,0.70
2019-04-28T06:02:30.679Z,1.50
2019-04-28T06:05:00.350Z,0.90
2019-04-28T06:07:42.229Z,1.00
2019-04-28T06:10:12.467Z,0.83
2019-04-28T06:12:42.280Z,1.27
2019-04-28T06:15:12.119Z,2.07
2019-04-28T06:17:41.686Z,1.57
2019-04-28T06:20:11.848Z,0.70
2019-04-28T06:22:41.463Z,1.40
2019-04-28T06:25:11.158Z,4.10
2019-04-28T06:27:40.759Z,2.73
2019-04-28T06:30:10.377Z,1.10
2019-04-28T06:32:39.796Z,1.37
2019-04-28T06:35:09.319Z,0.97
2019-04-28T06:37:38.752Z,0.93
2019-04-28T06:40:08.556Z,0.80
2019-04-28T06:42:38.175Z,0.60
2019-04-28T06:45:07.747Z,0.60
2019-04-28T06:47:37.202Z,0.70
2019-04-28T06:50:06.650Z,0.80
2019-04-28T06:52:36.072Z,1.40
2019-04-28T06:55:06.047Z,0.90
2019-04-28T06:57:35.469Z,0.93
2019-04-28T07:00:05.614Z,0.80
2019-04-28T07:02:35.042Z,0.80
2019-04-28T07:05:04.888Z,0.87
2019-04-28T07:07:34.388Z,0.80
2019-04-28T07:10:03.787Z,0.90
2019-04-28T07:12:33.239Z,0.80
2019-04-28T07:15:02.736Z,0.97
2019-04-28T07:17:32.183Z,1.03
2019-04-28T07:20:10.706Z,1.10
2019-04-28T07:22:40.156Z,0.80
2019-04-28T07:25:09.592Z,0.97
2019-04-28T07:27:39.042Z,0.90
2019-04-28T07:30:08.554Z,0.90
2019-04-28T07:32:38.148Z,0.90
2019-04-28T07:35:07.641Z,1.00
2019-04-28T07:37:37.120Z,0.70
2019-04-28T07:40:06.671Z,1.00
2019-04-28T07:42:36.119Z,1.03
2019-04-28T07:45:05.692Z,1.20
2019-04-28T07:47:35.174Z,0.70
2019-04-28T07:50:04.708Z,1.33
2019-04-28T07:52:40.296Z,1.00
2019-04-28T07:55:09.740Z,0.90
2019-04-28T07:57:39.171Z,0.80
2019-04-28T08:00:09.764Z,0.80
2019-04-28T08:02:39.194Z,1.17
2019-04-28T08:05:08.665Z,0.87
2019-04-28T08:07:38.079Z,1.10
2019-04-28T08:10:07.534Z,0.80
2019-04-28T08:12:36.959Z,0.70
2019-04-28T08:15:06.430Z,1.20
2019-04-28T08:17:35.967Z,0.90
2019-04-28T08:20:05.873Z,0.63
2019-04-28T08:22:35.315Z,0.80
2019-04-28T08:25:04.919Z,0.60
2019-04-28T08:27:34.334Z,1.20
2019-04-28T08:30:03.838Z,0.87
2019-04-28T08:32:45.177Z,0.90
2019-04-28T08:35:14.591Z,0.90
2019-04-28T08:37:44.099Z,0.80
2019-04-28T08:40:13.514Z,1.10
2019-04-28T08:42:43.097Z,0.90
2019-04-28T08:45:12.534Z,0.90
2019-04-28T08:47:41.927Z,1.10
2019-04-28T08:50:11.353Z,1.10
2019-04-28T08:52:40.779Z,0.70
2019-04-28T08:55:10.291Z,0.80
2019-04-28T08:57:39.737Z,0.77
2019-04-28T09:00:10.540Z,0.87
2019-04-28T09:02:39.986Z,0.87
2019-04-28T09:05:09.427Z,0.90
2019-04-28T09:07:38.841Z,0.90
2019-04-28T09:10:08.312Z,0.87
2019-04-28T09:12:37.731Z,0.87
2019-04-28T09:15:07.491Z,1.00
2019-04-28T09:17:36.904Z,0.73
2019-04-28T09:20:06.623Z,0.77
2019-04-28T09:22:36.030Z,0.63
2019-04-28T09:25:05.653Z,0.70
2019-04-28T09:27:35.171Z,0.90
2019-04-28T09:30:04.843Z,0.90
2019-04-28T09:32:34.300Z,0.80
2019-04-28T09:35:03.757Z,0.80
2019-04-28T09:37:33.182Z,1.23
2019-04-28T09:40:14.303Z,0.90
2019-04-28T09:43:08.767Z,1.00
2019-04-28T09:45:47.850Z,0.90
2019-04-28T09:48:17.317Z,0.70
2019-04-28T09:50:46.744Z,0.80
2019-04-28T09:53:16.179Z,0.77
2019-04-28T09:55:45.623Z,0.90
2019-04-28T09:58:15.119Z,0.90
2019-04-28T10:00:44.534Z,0.80
2019-04-28T10:03:14.024Z,1.10
2019-04-28T10:05:43.509Z,0.90
2019-04-28T10:08:12.973Z,0.83
2019-04-28T10:10:42.411Z,0.70
2019-04-28T10:13:11.831Z,1.00
2019-04-28T10:15:41.290Z,0.70
2019-04-28T10:18:10.709Z,0.70
2019-04-28T10:20:40.163Z,0.70
2019-04-28T10:23:09.599Z,0.97
2019-04-28T10:25:39.037Z,0.70
2019-04-28T10:28:08.555Z,0.80
2019-04-28T10:30:37.996Z,1.10
2019-04-28T10:33:07.446Z,1.00
2019-04-28T10:35:36.974Z,0.90
2019-04-28T10:38:06.523Z,0.90
2019-04-28T10:41:08.205Z,0.70
2019-04-28T10:43:37.656Z,0.70
2019-04-28T10:46:07.099Z,0.70
2019-04-28T10:48:36.716Z,0.80
2019-04-28T10:51:06.163Z,0.80
2019-04-28T10:53:35.625Z,0.70
2019-04-28T10:56:05.136Z,0.80
2019-04-28T10:58:34.568Z,0.70
2019-04-28T11:01:04.017Z,0.63
2019-04-28T11:03:33.469Z,0.70
2019-04-28T11:06:02.966Z,0.70
2019-04-28T11:08:50.221Z,0.63
2019-04-28T11:11:27.543Z,0.70
2019-04-28T11:13:57.161Z,0.73
2019-04-28T11:16:33.194Z,0.70
2019-04-28T11:19:02.767Z,0.70
2019-04-28T11:21:32.301Z,0.70
2019-04-28T11:24:01.840Z,0.80
2019-04-28T11:26:31.382Z,0.70
2019-04-28T11:29:01.043Z,0.60
2019-04-28T11:31:30.494Z,0.60
2019-04-28T11:34:25.050Z,0.97
2019-04-28T11:36:54.532Z,0.60
2019-04-28T11:39:31.096Z,1.00
2019-04-28T11:42:00.584Z,0.70
2019-04-28T11:44:30.024Z,1.00
2019-04-28T11:46:59.438Z,0.80
2019-04-28T11:49:28.966Z,0.70
2019-04-28T11:51:58.498Z,0.60
2019-04-28T11:54:27.948Z,0.70
2019-04-28T11:56:57.388Z,0.80
2019-04-28T11:59:26.848Z,0.73
2019-04-28T12:01:56.550Z,0.70
2019-04-28T12:04:26.007Z,0.80
2019-04-28T12:06:55.432Z,0.60
2019-04-28T12:09:33.295Z,0.70
2019-04-28T12:12:03.580Z,0.70
2019-04-28T12:14:54.961Z,0.60
2019-04-28T12:17:46.072Z,1.93
2019-04-28T12:20:18.613Z,0.70
2019-04-28T12:22:48.013Z,0.70
2019-04-28T12:25:17.621Z,0.60
2019-04-28T12:27:47.118Z,0.70
2019-04-28T12:30:16.575Z,0.63
2019-04-28T12:32:46.004Z,0.70
2019-04-28T12:35:18.284Z,0.80
2019-04-28T12:37:46.571Z,0.63
2019-04-28T12:40:15.991Z,0.60
2019-04-28T12:42:45.525Z,0.60
2019-04-28T12:45:15.006Z,0.60
2019-04-28T12:47:44.530Z,0.60
2019-04-28T12:50:22.450Z,0.60
2019-04-28T12:52:52.167Z,0.67
2019-04-28T12:55:21.668Z,0.70
2019-04-28T12:57:51.469Z,0.70
2019-04-28T13:00:39.738Z,0.67
2019-04-28T13:03:26.416Z,0.70
2019-04-28T13:06:02.483Z,0.60
2019-04-28T13:08:27.486Z,0.70
2019-04-28T13:10:56.892Z,0.60
2019-04-28T13:13:26.334Z,0.60
2019-04-28T13:15:55.816Z,0.60
2019-04-28T13:18:25.265Z,0.60
2019-04-28T13:20:54.705Z,0.90
2019-04-28T13:23:24.265Z,0.73
2019-04-28T13:25:53.679Z,0.90
2019-04-28T13:28:23.112Z,0.80
2019-04-28T13:30:52.511Z,0.70
2019-04-28T13:33:22.083Z,0.80
2019-04-28T13:35:51.519Z,0.90
2019-04-28T13:38:21.001Z,0.83
2019-04-28T13:40:50.430Z,1.10
2019-04-28T13:43:20.008Z,0.70
2019-04-28T13:45:49.392Z,0.80
2019-04-28T13:48:18.909Z,0.80
2019-04-28T13:50:49.029Z,1.00
2019-04-28T13:53:18.791Z,0.70
2019-04-28T13:56:07.058Z,0.87
2019-04-28T13:58:39.055Z,1.37
2019-04-28T14:01:36.391Z,0.90
2019-04-28T14:04:24.700Z,1.13
2019-04-28T14:07:02.301Z,0.80
2019-04-28T14:09:31.833Z,0.83
2019-04-28T14:12:01.230Z,0.87
2019-04-28T14:14:30.686Z,0.83
2019-04-28T14:17:00.199Z,1.00
2019-04-28T14:19:29.622Z,0.80
2019-04-28T14:21:59.067Z,0.80
2019-04-28T14:24:28.499Z,0.93
2019-04-28T14:26:57.989Z,0.70
2019-04-28T14:29:27.420Z,0.80
2019-04-28T14:31:56.910Z,0.93
2019-04-28T14:34:26.345Z,1.10
2019-04-28T14:36:55.810Z,1.10
2019-04-28T14:39:25.282Z,0.90
2019-04-28T14:41:54.747Z,1.07
2019-04-28T14:44:24.249Z,0.73
2019-04-28T14:46:53.963Z,0.90
2019-04-28T14:49:23.542Z,0.87
2019-04-28T14:51:53.062Z,1.20
2019-04-28T14:54:22.476Z,0.97
2019-04-28T14:56:51.993Z,1.00
2019-04-28T14:59:21.417Z,1.13
2019-04-28T15:02:09.711Z,0.80
2019-04-28T15:05:13.284Z,0.93
2019-04-28T15:07:59.237Z,0.90
2019-04-28T15:10:40.785Z,1.10
2019-04-28T15:13:10.413Z,0.90
2019-04-28T15:15:39.967Z,0.77
2019-04-28T15:18:09.508Z,3.33
2019-04-28T15:20:39.064Z,1.67
2019-04-28T15:23:08.450Z,1.20
2019-04-28T15:25:37.871Z,0.80
2019-04-28T15:28:07.304Z,0.70
2019-04-28T15:30:36.735Z,0.90
2019-04-28T15:33:06.241Z,0.87
2019-04-28T15:35:35.801Z,0.87
2019-04-28T15:38:05.254Z,1.37
2019-04-28T15:40:34.726Z,0.90
2019-04-28T15:43:04.168Z,1.07
2019-04-28T15:45:33.600Z,1.17
2019-04-28T15:48:03.039Z,1.07
2019-04-28T15:50:32.578Z,1.70
2019-04-28T15:53:02.053Z,1.10
2019-04-28T15:55:49.472Z,1.00
2019-04-28T15:58:35.674Z,1.07
2019-04-28T16:01:05.333Z,1.27
2019-04-28T16:03:34.798Z,1.40
2019-04-28T16:06:04.298Z,1.17
2019-04-28T16:08:33.750Z,1.00
2019-04-28T16:11:03.170Z,1.30
2019-04-28T16:13:32.782Z,1.03
2019-04-28T16:16:02.267Z,1.00
2019-04-28T16:18:31.817Z,0.90
2019-04-28T16:21:01.249Z,0.97
2019-04-28T16:23:30.700Z,1.43
2019-04-28T16:26:00.176Z,1.20
2019-04-28T16:28:29.639Z,1.20
2019-04-28T16:30:59.128Z,1.33
2019-04-28T16:33:28.541Z,1.30
2019-04-28T16:35:58.233Z,1.13
2019-04-28T16:38:27.688Z,0.97
2019-04-28T16:41:09.084Z,1.60
2019-04-28T16:43:58.897Z,1.43
2019-04-28T16:46:28.351Z,1.67
2019-04-28T16:48:57.807Z,1.30
2019-04-28T16:51:27.405Z,1.70
2019-04-28T16:53:56.928Z,2.13
2019-04-28T16:56:48.306Z,2.60
2019-04-28T16:59:34.247Z,2.37
2019-04-28T17:02:11.049Z,3.10
2019-04-28T17:04:40.480Z,2.20
2019-04-28T17:07:09.982Z,2.00
2019-04-28T17:09:39.404Z,1.50
2019-04-28T17:12:08.947Z,2.40
2019-04-28T17:14:38.411Z,2.70
2019-04-28T17:17:09.636Z,2.80
2019-04-28T17:19:39.063Z,2.07
2019-04-28T17:22:08.556Z,2.23
2019-04-28T17:24:38.510Z,2.00
2019-04-28T17:27:07.967Z,1.60
2019-04-28T17:29:37.991Z,1.47
2019-04-28T17:32:07.635Z,1.97
2019-04-28T17:34:37.084Z,2.60
2019-04-28T17:37:07.392Z,2.30
2019-04-28T17:39:36.805Z,2.27
2019-04-28T17:42:07.891Z,2.70
2019-04-28T17:44:37.453Z,2.00
2019-04-28T17:47:06.912Z,1.97
2019-04-28T17:49:37.897Z,2.43
2019-04-28T17:52:07.719Z,1.70
2019-04-28T17:54:37.165Z,2.03
2019-04-28T17:57:06.942Z,1.50
2019-04-28T17:59:36.925Z,2.03
2019-04-28T18:02:28.117Z,2.23
2019-04-28T18:05:16.400Z,1.80
2019-04-28T18:07:47.587Z,1.90
2019-04-28T18:10:17.310Z,1.70
2019-04-28T18:12:59.522Z,1.70
2019-04-28T18:15:40.049Z,1.67
2019-04-28T18:18:27.116Z,1.70
2019-04-28T18:20:56.562Z,1.53
2019-04-28T18:23:26.065Z,1.60
2019-04-28T18:25:55.677Z,2.10
2019-04-28T18:28:25.279Z,1.70
2019-04-28T18:31:12.394Z,1.67
2019-04-28T18:33:59.153Z,1.90
2019-04-28T18:36:36.363Z,1.20
2019-04-28T18:39:19.396Z,1.50
2019-04-28T18:42:14.803Z,2.20
2019-04-28T18:44:44.319Z,1.53
2019-04-28T18:47:13.745Z,2.00
2019-04-28T18:49:43.281Z,1.77
2019-04-28T18:52:12.858Z,2.10
2019-04-28T18:54:42.302Z,1.97
2019-04-28T18:57:11.720Z,1.90
2019-04-28T18:59:41.165Z,1.83
2019-04-28T19:02:32.337Z,1.70
2019-04-28T19:05:01.924Z,1.80
2019-04-28T19:07:48.811Z,2.37
2019-04-28T19:10:40.460Z,2.40
2019-04-28T19:13:20.148Z,1.20
2019-04-28T19:16:26.383Z,1.40
2019-04-28T19:18:57.964Z,1.37
2019-04-28T19:21:27.450Z,1.40
2019-04-28T19:23:56.870Z,1.10
2019-04-28T19:26:26.312Z,1.20
2019-04-28T19:28:55.736Z,1.53
2019-04-28T19:31:25.164Z,1.77
2019-04-28T19:33:54.613Z,1.80
2019-04-28T19:36:24.067Z,2.60
2019-04-28T19:39:02.879Z,1.53
2019-04-28T19:41:27.155Z,1.90
2019-04-28T19:44:01.557Z,1.37
2019-04-28T19:46:31.085Z,1.60
2019-04-28T19:49:00.497Z,1.40
2019-04-28T19:51:32.154Z,1.47
2019-04-28T19:54:01.413Z,1.30
2019-04-28T19:56:44.898Z,1.23
2019-04-28T19:59:18.855Z,1.03
2019-04-28T20:01:48.339Z,1.43
2019-04-28T20:04:17.807Z,1.30
2019-04-28T20:06:47.167Z,1.07
2019-04-28T20:09:16.589Z,1.53
2019-04-28T20:11:46.035Z,1.53
2019-04-28T20:14:15.457Z,1.10
2019-04-28T20:16:44.875Z,1.43
2019-04-28T20:19:14.281Z,1.90
2019-04-28T20:21:43.718Z,1.50
2019-04-28T20:24:13.160Z,1.70
2019-04-28T20:26:42.568Z,2.13
2019-04-28T20:29:11.986Z,2.33
2019-04-28T20:31:41.453Z,2.20
2019-04-28T20:34:10.869Z,1.73
2019-04-28T20:37:08.541Z,2.17
2019-04-28T20:39:37.961Z,2.20
2019-04-28T20:42:25.301Z,2.00
2019-04-28T20:44:54.997Z,2.50
2019-04-28T20:47:24.409Z,2.80
2019-04-28T20:49:53.822Z,2.03
2019-04-28T20:52:23.235Z,2.57
2019-04-28T20:54:52.661Z,2.27
2019-04-28T20:57:22.082Z,2.27
2019-04-28T20:59:51.546Z,1.70
2019-04-28T21:02:20.972Z,1.90
2019-04-28T21:04:50.382Z,1.90
2019-04-28T21:07:19.801Z,1.90
2019-04-28T21:09:49.245Z,1.70
2019-04-28T21:12:18.724Z,1.93
2019-04-28T21:14:48.152Z,2.07
2019-04-28T21:17:17.563Z,1.60
2019-04-28T21:19:47.005Z,1.73
2019-04-28T21:22:16.437Z,1.80
2019-04-28T21:24:45.856Z,1.90
2019-04-28T21:27:15.276Z,1.93
2019-04-28T21:29:44.691Z,1.70
2019-04-28T21:32:14.105Z,2.30
2019-04-28T21:34:43.535Z,1.97
2019-04-28T21:37:12.957Z,2.03
2019-04-28T21:39:42.449Z,1.90
2019-04-28T21:42:15.286Z,1.50
2019-04-28T21:44:59.481Z,1.70
2019-04-28T21:47:31.316Z,1.57
2019-04-28T21:50:00.726Z,1.80
2019-04-28T21:52:30.123Z,1.70
2019-04-28T21:54:59.560Z,1.80
2019-04-28T21:57:29.090Z,1.80
2019-04-28T21:59:58.514Z,1.83
2019-04-28T22:02:28.000Z,1.73
2019-04-28T22:04:57.407Z,1.63
2019-04-28T22:07:26.853Z,1.70
2019-04-28T22:09:56.268Z,1.83
2019-04-28T22:12:25.697Z,1.57
2019-04-28T22:14:55.109Z,1.90
2019-04-28T22:17:24.541Z,1.77
2019-04-28T22:19:53.959Z,2.10
2019-04-28T22:22:23.412Z,1.27
2019-04-28T22:24:59.328Z,1.50
2019-04-28T22:27:32.380Z,1.77
2019-04-28T22:30:01.818Z,1.63
2019-04-28T22:32:31.317Z,1.40
2019-04-28T22:35:00.722Z,1.23
2019-04-28T22:37:30.144Z,1.30
2019-04-28T22:39:59.574Z,1.23
2019-04-28T22:42:28.996Z,1.60
2019-04-28T22:44:58.470Z,1.43
2019-04-28T22:47:27.980Z,1.20
2019-04-28T22:49:57.394Z,1.20
2019-04-28T22:52:26.832Z,1.43
2019-04-28T22:55:15.113Z,1.70
2019-04-28T22:58:09.262Z,1.50
2019-04-28T23:00:54.845Z,1.40
2019-04-28T23:03:54.987Z,2.13
2019-04-28T23:06:24.426Z,2.10
2019-04-28T23:08:53.853Z,2.50
2019-04-28T23:11:23.263Z,2.60
2019-04-28T23:13:52.663Z,4.53
2019-04-28T23:16:22.172Z,2.73
2019-04-28T23:18:51.980Z,2.70
2019-04-28T23:21:36.189Z,2.93
2019-04-28T23:24:05.590Z,3.27
2019-04-28T23:26:35.002Z,3.73
2019-04-28T23:29:04.429Z,2.30
2019-04-28T23:31:33.856Z,1.93
2019-04-28T23:34:03.261Z,2.37
2019-04-28T23:36:32.684Z,2.43
2019-04-28T23:39:02.099Z,2.40
2019-04-28T23:41:39.957Z,11.80
2019-04-28T23:44:09.383Z,28.40
2019-04-28T23:46:58.576Z,18.20
2019-04-28T23:49:28.213Z,27.80
2019-04-28T23:52:16.542Z,37.17
2019-04-28T23:54:48.172Z,48.30
2019-04-28T23:57:17.599Z,49.00
2019-04-28T23:59:47.037Z,23.90
